sensor_id;sensor_type;location;lat;lon;timestamp;P1;durP1;ratioP1;P2;durP2;ratioP2
25331;SDS011;13284;52.748;13.452;2023-11-21T00:00:18;24.40;;;9.90;;
25331;SDS011;13284;52.748;13.452;2023-11-21T00:02:44;22.33;;;9.50;;
25331;SDS011;13284;52.748;13.452;2023-11-21T00:05:10;14.67;;;9.50;;
25331;SDS011;13284;52.748;13.452;2023-11-21T00:07:38;25.13;;;12.30;;
25331;SDS011;13284;52.748;13.452;2023-11-21T00:10:04;20.40;;;10.13;;
25331;SDS011;13284;52.748;13.452;2023-11-21T00:12:31;19.33;;;9.83;;
25331;SDS011;13284;52.748;13.452;2023-11-21T00:14:58;21.07;;;10.17;;
25331;SDS011;13284;52.748;13.452;2023-11-21T00:17:24;20.83;;;9.37;;
25331;SDS011;13284;52.748;13.452;2023-11-21T00:19:49;21.10;;;9.77;;
25331;SDS011;13284;52.748;13.452;2023-11-21T00:22:17;25.23;;;10.33;;
25331;SDS011;13284;52.748;13.452;2023-11-21T00:24:42;20.80;;;11.53;;
25331;SDS011;13284;52.748;13.452;2023-11-21T00:27:08;21.27;;;10.33;;
25331;SDS011;13284;52.748;13.452;2023-11-21T00:29:33;16.83;;;9.23;;
25331;SDS011;13284;52.748;13.452;2023-11-21T00:31:59;14.90;;;10.10;;
25331;SDS011;13284;52.748;13.452;2023-11-21T00:34:24;21.20;;;8.30;;
25331;SDS011;13284;52.748;13.452;2023-11-21T00:36:50;13.17;;;7.60;;
25331;SDS011;13284;52.748;13.452;2023-11-21T00:39:15;14.10;;;7.40;;
25331;SDS011;13284;52.748;13.452;2023-11-21T00:41:44;15.00;;;7.90;;
25331;SDS011;13284;52.748;13.452;2023-11-21T00:44:10;17.70;;;7.90;;
25331;SDS011;13284;52.748;13.452;2023-11-21T00:46:36;13.40;;;8.40;;
25331;SDS011;13284;52.748;13.452;2023-11-21T00:49:02;17.43;;;7.90;;
25331;SDS011;13284;52.748;13.452;2023-11-21T00:51:29;19.00;;;9.30;;
25331;SDS011;13284;52.748;13.452;2023-11-21T00:53:54;16.27;;;7.50;;
25331;SDS011;13284;52.748;13.452;2023-11-21T00:56:20;14.87;;;8.50;;
25331;SDS011;13284;52.748;13.452;2023-11-21T00:58:46;13.80;;;8.57;;
25331;SDS011;13284;52.748;13.452;2023-11-21T01:01:14;14.40;;;8.13;;
25331;SDS011;13284;52.748;13.452;2023-11-21T01:03:40;15.47;;;7.83;;
25331;SDS011;13284;52.748;13.452;2023-11-21T01:06:06;14.97;;;8.87;;
25331;SDS011;13284;52.748;13.452;2023-11-21T01:08:32;13.23;;;7.40;;
25331;SDS011;13284;52.748;13.452;2023-11-21T01:10:58;14.63;;;7.20;;
25331;SDS011;13284;52.748;13.452;2023-11-21T01:13:23;13.57;;;9.67;;
25331;SDS011;13284;52.748;13.452;2023-11-21T01:15:53;12.03;;;7.80;;
25331;SDS011;13284;52.748;13.452;2023-11-21T01:18:18;12.13;;;6.30;;
25331;SDS011;13284;52.748;13.452;2023-11-21T01:20:44;9.97;;;6.50;;
25331;SDS011;13284;52.748;13.452;2023-11-21T01:23:11;10.80;;;6.30;;
25331;SDS011;13284;52.748;13.452;2023-11-21T01:25:40;11.97;;;6.40;;
25331;SDS011;13284;52.748;13.452;2023-11-21T01:28:05;12.93;;;6.97;;
25331;SDS011;13284;52.748;13.452;2023-11-21T01:30:31;9.80;;;6.10;;
25331;SDS011;13284;52.748;13.452;2023-11-21T01:32:57;9.67;;;7.40;;
25331;SDS011;13284;52.748;13.452;2023-11-21T01:35:23;8.60;;;5.73;;
25331;SDS011;13284;52.748;13.452;2023-11-21T01:37:48;9.03;;;5.87;;
25331;SDS011;13284;52.748;13.452;2023-11-21T01:40:14;7.37;;;5.33;;
25331;SDS011;13284;52.748;13.452;2023-11-21T01:42:40;10.60;;;6.20;;
25331;SDS011;13284;52.748;13.452;2023-11-21T01:45:06;6.87;;;5.47;;
25331;SDS011;13284;52.748;13.452;2023-11-21T01:47:33;8.17;;;5.23;;
25331;SDS011;13284;52.748;13.452;2023-11-21T01:49:59;7.87;;;5.37;;
25331;SDS011;13284;52.748;13.452;2023-11-21T01:52:25;8.13;;;5.23;;
25331;SDS011;13284;52.748;13.452;2023-11-21T01:54:51;9.47;;;5.90;;
25331;SDS011;13284;52.748;13.452;2023-11-21T01:57:19;10.03;;;5.70;;
25331;SDS011;13284;52.748;13.452;2023-11-21T01:59:45;8.20;;;5.20;;
25331;SDS011;13284;52.748;13.452;2023-11-21T02:02:13;9.90;;;6.80;;
25331;SDS011;13284;52.748;13.452;2023-11-21T02:04:39;8.87;;;5.77;;
25331;SDS011;13284;52.748;13.452;2023-11-21T02:07:04;11.47;;;5.80;;
25331;SDS011;13284;52.748;13.452;2023-11-21T02:09:33;9.43;;;6.37;;
25331;SDS011;13284;52.748;13.452;2023-11-21T02:11:59;9.90;;;5.83;;
25331;SDS011;13284;52.748;13.452;2023-11-21T02:14:25;10.30;;;7.00;;
25331;SDS011;13284;52.748;13.452;2023-11-21T02:16:52;9.57;;;6.30;;
25331;SDS011;13284;52.748;13.452;2023-11-21T02:19:19;10.70;;;6.73;;
25331;SDS011;13284;52.748;13.452;2023-11-21T02:21:53;10.70;;;7.00;;
25331;SDS011;13284;52.748;13.452;2023-11-21T02:24:23;10.17;;;6.17;;
25331;SDS011;13284;52.748;13.452;2023-11-21T02:26:49;10.30;;;6.93;;
25331;SDS011;13284;52.748;13.452;2023-11-21T02:29:18;10.87;;;6.60;;
25331;SDS011;13284;52.748;13.452;2023-11-21T02:31:47;10.97;;;7.27;;
25331;SDS011;13284;52.748;13.452;2023-11-21T02:34:16;9.77;;;5.57;;
25331;SDS011;13284;52.748;13.452;2023-11-21T02:36:43;8.23;;;6.80;;
25331;SDS011;13284;52.748;13.452;2023-11-21T02:39:09;12.17;;;6.53;;
25331;SDS011;13284;52.748;13.452;2023-11-21T02:41:36;10.27;;;7.47;;
25331;SDS011;13284;52.748;13.452;2023-11-21T02:44:07;10.83;;;6.80;;
25331;SDS011;13284;52.748;13.452;2023-11-21T02:46:33;10.67;;;7.20;;
25331;SDS011;13284;52.748;13.452;2023-11-21T02:49:03;12.13;;;6.70;;
25331;SDS011;13284;52.748;13.452;2023-11-21T02:51:31;12.43;;;9.07;;
25331;SDS011;13284;52.748;13.452;2023-11-21T02:53:57;9.30;;;6.50;;
25331;SDS011;13284;52.748;13.452;2023-11-21T02:56:27;10.97;;;6.73;;
25331;SDS011;13284;52.748;13.452;2023-11-21T02:58:56;11.90;;;7.43;;
25331;SDS011;13284;52.748;13.452;2023-11-21T03:01:22;12.90;;;7.30;;
25331;SDS011;13284;52.748;13.452;2023-11-21T03:03:51;10.77;;;7.60;;
25331;SDS011;13284;52.748;13.452;2023-11-21T03:06:18;10.47;;;7.30;;
25331;SDS011;13284;52.748;13.452;2023-11-21T03:08:44;12.68;;;7.45;;
25331;SDS011;13284;52.748;13.452;2023-11-21T03:11:09;11.43;;;7.90;;
25331;SDS011;13284;52.748;13.452;2023-11-21T03:13:35;10.80;;;8.00;;
25331;SDS011;13284;52.748;13.452;2023-11-21T03:16:00;10.27;;;6.93;;
25331;SDS011;13284;52.748;13.452;2023-11-21T03:18:28;10.60;;;7.30;;
25331;SDS011;13284;52.748;13.452;2023-11-21T03:20:54;11.83;;;6.60;;
25331;SDS011;13284;52.748;13.452;2023-11-21T03:23:20;10.40;;;6.80;;
25331;SDS011;13284;52.748;13.452;2023-11-21T03:25:45;9.67;;;6.17;;
25331;SDS011;13284;52.748;13.452;2023-11-21T03:28:11;9.40;;;7.20;;
25331;SDS011;13284;52.748;13.452;2023-11-21T03:30:37;12.80;;;7.60;;
25331;SDS011;13284;52.748;13.452;2023-11-21T03:33:02;11.47;;;7.60;;
25331;SDS011;13284;52.748;13.452;2023-11-21T03:35:28;10.90;;;7.50;;
25331;SDS011;13284;52.748;13.452;2023-11-21T03:37:53;11.73;;;7.30;;
25331;SDS011;13284;52.748;13.452;2023-11-21T03:40:19;9.23;;;6.37;;
25331;SDS011;13284;52.748;13.452;2023-11-21T03:42:46;9.90;;;6.47;;
25331;SDS011;13284;52.748;13.452;2023-11-21T03:45:12;10.10;;;7.70;;
25331;SDS011;13284;52.748;13.452;2023-11-21T03:47:37;10.13;;;6.30;;
25331;SDS011;13284;52.748;13.452;2023-11-21T03:50:04;10.53;;;6.67;;
25331;SDS011;13284;52.748;13.452;2023-11-21T03:52:30;12.63;;;6.60;;
25331;SDS011;13284;52.748;13.452;2023-11-21T03:54:55;9.23;;;5.60;;
25331;SDS011;13284;52.748;13.452;2023-11-21T03:57:21;9.27;;;6.97;;
25331;SDS011;13284;52.748;13.452;2023-11-21T03:59:46;10.50;;;5.60;;
25331;SDS011;13284;52.748;13.452;2023-11-21T04:02:12;10.37;;;7.23;;
25331;SDS011;13284;52.748;13.452;2023-11-21T04:04:38;8.97;;;5.73;;
25331;SDS011;13284;52.748;13.452;2023-11-21T04:07:03;9.37;;;6.40;;
25331;SDS011;13284;52.748;13.452;2023-11-21T04:09:29;12.80;;;6.73;;
25331;SDS011;13284;52.748;13.452;2023-11-21T04:11:55;9.40;;;6.57;;
25331;SDS011;13284;52.748;13.452;2023-11-21T04:14:20;8.13;;;5.40;;
25331;SDS011;13284;52.748;13.452;2023-11-21T04:16:47;8.33;;;6.20;;
25331;SDS011;13284;52.748;13.452;2023-11-21T04:19:13;11.00;;;5.93;;
25331;SDS011;13284;52.748;13.452;2023-11-21T04:21:42;12.10;;;7.13;;
25331;SDS011;13284;52.748;13.452;2023-11-21T04:24:08;9.03;;;5.63;;
25331;SDS011;13284;52.748;13.452;2023-11-21T04:26:34;10.67;;;6.40;;
25331;SDS011;13284;52.748;13.452;2023-11-21T04:29:00;9.87;;;7.07;;
25331;SDS011;13284;52.748;13.452;2023-11-21T04:31:25;12.00;;;7.00;;
25331;SDS011;13284;52.748;13.452;2023-11-21T04:33:51;9.23;;;5.83;;
25331;SDS011;13284;52.748;13.452;2023-11-21T04:36:16;8.10;;;5.33;;
25331;SDS011;13284;52.748;13.452;2023-11-21T04:38:42;11.00;;;6.80;;
25331;SDS011;13284;52.748;13.452;2023-11-21T04:41:08;8.00;;;5.07;;
25331;SDS011;13284;52.748;13.452;2023-11-21T04:43:33;7.17;;;5.57;;
25331;SDS011;13284;52.748;13.452;2023-11-21T04:45:59;9.73;;;6.23;;
25331;SDS011;13284;52.748;13.452;2023-11-21T04:48:25;7.47;;;5.10;;
25331;SDS011;13284;52.748;13.452;2023-11-21T04:50:50;8.07;;;5.10;;
25331;SDS011;13284;52.748;13.452;2023-11-21T04:53:16;10.17;;;6.80;;
25331;SDS011;13284;52.748;13.452;2023-11-21T04:55:42;7.40;;;5.57;;
25331;SDS011;13284;52.748;13.452;2023-11-21T04:58:07;6.80;;;4.70;;
25331;SDS011;13284;52.748;13.452;2023-11-21T05:00:33;10.43;;;6.10;;
25331;SDS011;13284;52.748;13.452;2023-11-21T05:02:59;8.73;;;6.83;;
25331;SDS011;13284;52.748;13.452;2023-11-21T05:05:26;8.03;;;5.70;;
25331;SDS011;13284;52.748;13.452;2023-11-21T05:07:52;7.60;;;4.77;;
25331;SDS011;13284;52.748;13.452;2023-11-21T05:10:18;10.25;;;5.88;;
25331;SDS011;13284;52.748;13.452;2023-11-21T05:12:44;6.80;;;5.23;;
25331;SDS011;13284;52.748;13.452;2023-11-21T05:15:10;8.43;;;5.37;;
25331;SDS011;13284;52.748;13.452;2023-11-21T05:17:39;5.33;;;4.43;;
25331;SDS011;13284;52.748;13.452;2023-11-21T05:20:08;6.13;;;3.73;;
25331;SDS011;13284;52.748;13.452;2023-11-21T05:22:35;4.23;;;3.83;;
25331;SDS011;13284;52.748;13.452;2023-11-21T05:25:01;6.60;;;4.53;;
25331;SDS011;13284;52.748;13.452;2023-11-21T05:27:28;6.00;;;3.60;;
25331;SDS011;13284;52.748;13.452;2023-11-21T05:29:54;5.00;;;3.63;;
25331;SDS011;13284;52.748;13.452;2023-11-21T05:32:20;5.20;;;4.70;;
25331;SDS011;13284;52.748;13.452;2023-11-21T05:34:46;4.57;;;3.70;;
25331;SDS011;13284;52.748;13.452;2023-11-21T05:37:11;7.43;;;4.70;;
25331;SDS011;13284;52.748;13.452;2023-11-21T05:39:37;6.70;;;4.20;;
25331;SDS011;13284;52.748;13.452;2023-11-21T05:42:02;8.10;;;4.17;;
25331;SDS011;13284;52.748;13.452;2023-11-21T05:44:29;8.57;;;4.90;;
25331;SDS011;13284;52.748;13.452;2023-11-21T05:46:54;6.70;;;4.10;;
25331;SDS011;13284;52.748;13.452;2023-11-21T05:49:20;7.43;;;3.87;;
25331;SDS011;13284;52.748;13.452;2023-11-21T05:51:51;6.00;;;3.47;;
25331;SDS011;13284;52.748;13.452;2023-11-21T05:54:21;6.30;;;4.17;;
25331;SDS011;13284;52.748;13.452;2023-11-21T05:56:48;6.10;;;3.67;;
25331;SDS011;13284;52.748;13.452;2023-11-21T05:59:14;5.33;;;3.30;;
25331;SDS011;13284;52.748;13.452;2023-11-21T06:01:43;4.70;;;3.60;;
25331;SDS011;13284;52.748;13.452;2023-11-21T06:04:10;7.23;;;3.77;;
25331;SDS011;13284;52.748;13.452;2023-11-21T06:06:36;5.80;;;4.15;;
25331;SDS011;13284;52.748;13.452;2023-11-21T06:09:02;6.93;;;3.93;;
25331;SDS011;13284;52.748;13.452;2023-11-21T06:11:27;5.30;;;3.90;;
25331;SDS011;13284;52.748;13.452;2023-11-21T06:13:53;5.27;;;4.00;;
25331;SDS011;13284;52.748;13.452;2023-11-21T06:16:18;6.10;;;3.43;;
25331;SDS011;13284;52.748;13.452;2023-11-21T06:18:45;6.00;;;3.90;;
25331;SDS011;13284;52.748;13.452;2023-11-21T06:21:11;6.40;;;3.80;;
25331;SDS011;13284;52.748;13.452;2023-11-21T06:23:37;5.83;;;3.97;;
25331;SDS011;13284;52.748;13.452;2023-11-21T06:26:02;3.97;;;2.97;;
25331;SDS011;13284;52.748;13.452;2023-11-21T06:28:29;4.03;;;3.33;;
25331;SDS011;13284;52.748;13.452;2023-11-21T06:30:55;3.40;;;3.00;;
25331;SDS011;13284;52.748;13.452;2023-11-21T06:33:21;4.03;;;3.10;;
25331;SDS011;13284;52.748;13.452;2023-11-21T06:35:46;5.67;;;3.60;;
25331;SDS011;13284;52.748;13.452;2023-11-21T06:38:12;5.17;;;3.47;;
25331;SDS011;13284;52.748;13.452;2023-11-21T06:40:37;6.17;;;3.37;;
25331;SDS011;13284;52.748;13.452;2023-11-21T06:43:03;5.30;;;3.40;;
25331;SDS011;13284;52.748;13.452;2023-11-21T06:45:31;5.57;;;3.43;;
25331;SDS011;13284;52.748;13.452;2023-11-21T06:47:59;3.73;;;2.63;;
25331;SDS011;13284;52.748;13.452;2023-11-21T06:50:24;5.27;;;3.67;;
25331;SDS011;13284;52.748;13.452;2023-11-21T06:52:53;4.40;;;3.33;;
25331;SDS011;13284;52.748;13.452;2023-11-21T06:55:19;5.20;;;3.55;;
25331;SDS011;13284;52.748;13.452;2023-11-21T06:57:44;3.93;;;3.10;;
25331;SDS011;13284;52.748;13.452;2023-11-21T07:00:11;3.40;;;2.47;;
25331;SDS011;13284;52.748;13.452;2023-11-21T07:02:38;2.97;;;2.50;;
25331;SDS011;13284;52.748;13.452;2023-11-21T07:05:04;4.00;;;2.70;;
25331;SDS011;13284;52.748;13.452;2023-11-21T07:07:30;6.87;;;3.00;;
25331;SDS011;13284;52.748;13.452;2023-11-21T07:09:56;5.00;;;3.23;;
25331;SDS011;13284;52.748;13.452;2023-11-21T07:12:27;5.50;;;3.33;;
25331;SDS011;13284;52.748;13.452;2023-11-21T07:14:55;4.07;;;3.03;;
25331;SDS011;13284;52.748;13.452;2023-11-21T07:17:20;3.70;;;3.20;;
25331;SDS011;13284;52.748;13.452;2023-11-21T07:19:48;3.93;;;3.33;;
25331;SDS011;13284;52.748;13.452;2023-11-21T07:22:13;4.33;;;3.20;;
25331;SDS011;13284;52.748;13.452;2023-11-21T07:24:40;4.23;;;3.37;;
25331;SDS011;13284;52.748;13.452;2023-11-21T07:27:05;4.70;;;3.30;;
25331;SDS011;13284;52.748;13.452;2023-11-21T07:29:31;5.10;;;3.30;;
25331;SDS011;13284;52.748;13.452;2023-11-21T07:31:58;5.57;;;3.43;;
25331;SDS011;13284;52.748;13.452;2023-11-21T07:34:23;5.10;;;4.60;;
25331;SDS011;13284;52.748;13.452;2023-11-21T07:36:49;6.60;;;3.53;;
25331;SDS011;13284;52.748;13.452;2023-11-21T07:39:14;5.40;;;3.77;;
25331;SDS011;13284;52.748;13.452;2023-11-21T07:41:43;6.20;;;3.80;;
25331;SDS011;13284;52.748;13.452;2023-11-21T07:44:13;5.03;;;3.20;;
25331;SDS011;13284;52.748;13.452;2023-11-21T07:46:40;5.57;;;5.00;;
25331;SDS011;13284;52.748;13.452;2023-11-21T07:49:06;4.57;;;3.27;;
25331;SDS011;13284;52.748;13.452;2023-11-21T07:51:31;4.57;;;3.40;;
25331;SDS011;13284;52.748;13.452;2023-11-21T07:53:57;4.80;;;3.60;;
25331;SDS011;13284;52.748;13.452;2023-11-21T07:56:22;6.10;;;3.60;;
25331;SDS011;13284;52.748;13.452;2023-11-21T07:58:48;4.57;;;2.90;;
25331;SDS011;13284;52.748;13.452;2023-11-21T08:01:15;4.17;;;2.60;;
25331;SDS011;13284;52.748;13.452;2023-11-21T08:03:40;5.80;;;2.97;;
25331;SDS011;13284;52.748;13.452;2023-11-21T08:06:06;4.03;;;3.07;;
25331;SDS011;13284;52.748;13.452;2023-11-21T08:08:32;4.20;;;3.07;;
25331;SDS011;13284;52.748;13.452;2023-11-21T08:10:58;4.77;;;3.37;;
25331;SDS011;13284;52.748;13.452;2023-11-21T08:13:26;3.30;;;2.90;;
25331;SDS011;13284;52.748;13.452;2023-11-21T08:15:56;4.50;;;2.70;;
25331;SDS011;13284;52.748;13.452;2023-11-21T08:18:26;6.33;;;3.60;;
25331;SDS011;13284;52.748;13.452;2023-11-21T08:20:52;5.30;;;3.73;;
25331;SDS011;13284;52.748;13.452;2023-11-21T08:23:20;4.37;;;3.50;;
25331;SDS011;13284;52.748;13.452;2023-11-21T08:25:45;3.97;;;2.87;;
25331;SDS011;13284;52.748;13.452;2023-11-21T08:28:12;4.00;;;2.97;;
25331;SDS011;13284;52.748;13.452;2023-11-21T08:30:41;3.87;;;2.93;;
25331;SDS011;13284;52.748;13.452;2023-11-21T08:33:07;3.70;;;2.77;;
25331;SDS011;13284;52.748;13.452;2023-11-21T08:35:33;4.90;;;3.20;;
25331;SDS011;13284;52.748;13.452;2023-11-21T08:37:59;3.23;;;2.93;;
25331;SDS011;13284;52.748;13.452;2023-11-21T08:40:24;6.10;;;4.13;;
25331;SDS011;13284;52.748;13.452;2023-11-21T08:42:50;7.10;;;4.30;;
25331;SDS011;13284;52.748;13.452;2023-11-21T08:45:17;4.03;;;3.20;;
25331;SDS011;13284;52.748;13.452;2023-11-21T08:47:43;6.07;;;3.50;;
25331;SDS011;13284;52.748;13.452;2023-11-21T08:50:10;9.13;;;4.60;;
25331;SDS011;13284;52.748;13.452;2023-11-21T08:52:37;19.60;;;11.20;;
25331;SDS011;13284;52.748;13.452;2023-11-21T08:55:04;17.13;;;8.30;;
25331;SDS011;13284;52.748;13.452;2023-11-21T08:57:33;7.83;;;4.50;;
25331;SDS011;13284;52.748;13.452;2023-11-21T09:00:05;6.67;;;4.23;;
25331;SDS011;13284;52.748;13.452;2023-11-21T09:02:32;6.93;;;4.80;;
25331;SDS011;13284;52.748;13.452;2023-11-21T09:05:02;6.50;;;4.57;;
25331;SDS011;13284;52.748;13.452;2023-11-21T09:07:31;12.43;;;5.30;;
25331;SDS011;13284;52.748;13.452;2023-11-21T09:09:57;7.70;;;4.60;;
25331;SDS011;13284;52.748;13.452;2023-11-21T09:12:22;9.80;;;5.63;;
25331;SDS011;13284;52.748;13.452;2023-11-21T09:14:49;13.73;;;6.07;;
25331;SDS011;13284;52.748;13.452;2023-11-21T09:17:15;10.63;;;6.03;;
25331;SDS011;13284;52.748;13.452;2023-11-21T09:19:41;6.93;;;4.87;;
25331;SDS011;13284;52.748;13.452;2023-11-21T09:22:08;9.27;;;6.00;;
25331;SDS011;13284;52.748;13.452;2023-11-21T09:24:34;10.00;;;5.70;;
25331;SDS011;13284;52.748;13.452;2023-11-21T09:26:59;10.07;;;5.10;;
25331;SDS011;13284;52.748;13.452;2023-11-21T09:29:25;7.77;;;5.20;;
25331;SDS011;13284;52.748;13.452;2023-11-21T09:31:51;7.70;;;4.87;;
25331;SDS011;13284;52.748;13.452;2023-11-21T09:34:17;8.87;;;5.73;;
25331;SDS011;13284;52.748;13.452;2023-11-21T09:36:46;10.77;;;5.17;;
25331;SDS011;13284;52.748;13.452;2023-11-21T09:39:12;9.33;;;4.77;;
25331;SDS011;13284;52.748;13.452;2023-11-21T09:41:43;9.97;;;5.07;;
25331;SDS011;13284;52.748;13.452;2023-11-21T09:44:14;10.47;;;4.93;;
25331;SDS011;13284;52.748;13.452;2023-11-21T09:46:44;6.60;;;4.53;;
25331;SDS011;13284;52.748;13.452;2023-11-21T09:49:16;8.23;;;4.80;;
25331;SDS011;13284;52.748;13.452;2023-11-21T09:51:50;8.60;;;5.10;;
25331;SDS011;13284;52.748;13.452;2023-11-21T09:54:19;9.00;;;5.10;;
25331;SDS011;13284;52.748;13.452;2023-11-21T09:56:46;7.40;;;5.40;;
25331;SDS011;13284;52.748;13.452;2023-11-21T09:59:13;9.13;;;4.60;;
25331;SDS011;13284;52.748;13.452;2023-11-21T10:01:40;9.10;;;5.93;;
25331;SDS011;13284;52.748;13.452;2023-11-21T10:04:10;9.63;;;4.80;;
25331;SDS011;13284;52.748;13.452;2023-11-21T10:06:39;9.50;;;6.60;;
25331;SDS011;13284;52.748;13.452;2023-11-21T10:09:06;7.60;;;5.37;;
25331;SDS011;13284;52.748;13.452;2023-11-21T10:11:43;8.80;;;4.77;;
25331;SDS011;13284;52.748;13.452;2023-11-21T10:14:11;10.03;;;4.90;;
25331;SDS011;13284;52.748;13.452;2023-11-21T10:16:39;11.17;;;5.53;;
25331;SDS011;13284;52.748;13.452;2023-11-21T10:19:06;8.10;;;4.97;;
25331;SDS011;13284;52.748;13.452;2023-11-21T10:21:36;13.80;;;7.43;;
25331;SDS011;13284;52.748;13.452;2023-11-21T10:24:03;9.60;;;5.30;;
25331;SDS011;13284;52.748;13.452;2023-11-21T10:26:29;7.93;;;4.93;;
25331;SDS011;13284;52.748;13.452;2023-11-21T10:29:00;6.47;;;4.77;;
25331;SDS011;13284;52.748;13.452;2023-11-21T10:31:28;12.13;;;5.27;;
25331;SDS011;13284;52.748;13.452;2023-11-21T10:34:16;7.00;;;4.43;;
25331;SDS011;13284;52.748;13.452;2023-11-21T10:36:43;5.47;;;3.93;;
25331;SDS011;13284;52.748;13.452;2023-11-21T10:39:09;8.97;;;4.47;;
25331;SDS011;13284;52.748;13.452;2023-11-21T10:41:35;5.80;;;4.00;;
25331;SDS011;13284;52.748;13.452;2023-11-21T10:44:01;6.87;;;4.03;;
25331;SDS011;13284;52.748;13.452;2023-11-21T10:46:32;7.60;;;4.30;;
25331;SDS011;13284;52.748;13.452;2023-11-21T10:48:58;5.30;;;3.47;;
25331;SDS011;13284;52.748;13.452;2023-11-21T10:51:25;6.57;;;3.23;;
25331;SDS011;13284;52.748;13.452;2023-11-21T10:53:53;5.73;;;3.23;;
25331;SDS011;13284;52.748;13.452;2023-11-21T10:56:19;6.10;;;3.17;;
25331;SDS011;13284;52.748;13.452;2023-11-21T10:58:49;5.97;;;3.40;;
25331;SDS011;13284;52.748;13.452;2023-11-21T11:01:17;6.73;;;3.67;;
25331;SDS011;13284;52.748;13.452;2023-11-21T11:03:44;4.80;;;2.90;;
25331;SDS011;13284;52.748;13.452;2023-11-21T11:06:10;4.23;;;3.00;;
25331;SDS011;13284;52.748;13.452;2023-11-21T11:08:37;5.47;;;3.10;;
25331;SDS011;13284;52.748;13.452;2023-11-21T11:11:07;3.63;;;2.80;;
25331;SDS011;13284;52.748;13.452;2023-11-21T11:13:34;3.77;;;2.47;;
25331;SDS011;13284;52.748;13.452;2023-11-21T11:16:01;8.00;;;3.93;;
25331;SDS011;13284;52.748;13.452;2023-11-21T11:18:30;4.73;;;4.13;;
25331;SDS011;13284;52.748;13.452;2023-11-21T11:21:16;4.37;;;3.00;;
25331;SDS011;13284;52.748;13.452;2023-11-21T11:24:33;4.30;;;2.73;;
25331;SDS011;13284;52.748;13.452;2023-11-21T11:27:13;12.70;;;6.10;;
25331;SDS011;13284;52.748;13.452;2023-11-21T11:29:51;9.70;;;5.00;;
25331;SDS011;13284;52.748;13.452;2023-11-21T11:32:43;8.23;;;4.50;;
25331;SDS011;13284;52.748;13.452;2023-11-21T11:35:28;5.53;;;3.90;;
25331;SDS011;13284;52.748;13.452;2023-11-21T11:38:12;5.17;;;3.13;;
25331;SDS011;13284;52.748;13.452;2023-11-21T11:40:39;4.40;;;3.47;;
25331;SDS011;13284;52.748;13.452;2023-11-21T11:43:24;7.40;;;4.60;;
25331;SDS011;13284;52.748;13.452;2023-11-21T11:45:51;11.20;;;6.80;;
25331;SDS011;13284;52.748;13.452;2023-11-21T11:48:18;9.03;;;6.00;;
25331;SDS011;13284;52.748;13.452;2023-11-21T11:51:03;3.70;;;2.90;;
25331;SDS011;13284;52.748;13.452;2023-11-21T11:53:35;5.27;;;3.50;;
25331;SDS011;13284;52.748;13.452;2023-11-21T11:58:52;5.43;;;4.20;;
25331;SDS011;13284;52.748;13.452;2023-11-21T12:01:22;3.87;;;2.90;;
25331;SDS011;13284;52.748;13.452;2023-11-21T12:06:45;6.47;;;3.63;;
25331;SDS011;13284;52.748;13.452;2023-11-21T12:09:44;5.33;;;3.60;;
25331;SDS011;13284;52.748;13.452;2023-11-21T12:12:03;7.40;;;4.13;;
25331;SDS011;13284;52.748;13.452;2023-11-21T12:14:30;6.73;;;4.80;;
25331;SDS011;13284;52.748;13.452;2023-11-21T12:16:56;8.93;;;5.50;;
25331;SDS011;13284;52.748;13.452;2023-11-21T12:19:21;7.10;;;4.97;;
25331;SDS011;13284;52.748;13.452;2023-11-21T12:21:48;9.60;;;5.57;;
25331;SDS011;13284;52.748;13.452;2023-11-21T12:24:13;8.47;;;4.63;;
25331;SDS011;13284;52.748;13.452;2023-11-21T12:26:41;8.50;;;6.20;;
25331;SDS011;13284;52.748;13.452;2023-11-21T12:29:07;14.33;;;5.53;;
25331;SDS011;13284;52.748;13.452;2023-11-21T12:31:33;11.30;;;7.07;;
25331;SDS011;13284;52.748;13.452;2023-11-21T12:34:02;11.60;;;6.73;;
25331;SDS011;13284;52.748;13.452;2023-11-21T12:36:29;14.23;;;8.20;;
25331;SDS011;13284;52.748;13.452;2023-11-21T12:38:55;13.97;;;7.57;;
25331;SDS011;13284;52.748;13.452;2023-11-21T12:41:21;16.30;;;7.53;;
25331;SDS011;13284;52.748;13.452;2023-11-21T12:43:47;16.70;;;10.00;;
25331;SDS011;13284;52.748;13.452;2023-11-21T12:46:12;18.90;;;9.77;;
25331;SDS011;13284;52.748;13.452;2023-11-21T12:48:43;29.50;;;12.30;;
25331;SDS011;13284;52.748;13.452;2023-11-21T12:51:13;22.00;;;11.20;;
25331;SDS011;13284;52.748;13.452;2023-11-21T12:53:41;22.17;;;11.63;;
25331;SDS011;13284;52.748;13.452;2023-11-21T12:56:09;22.33;;;12.20;;
25331;SDS011;13284;52.748;13.452;2023-11-21T12:58:36;26.30;;;11.83;;
25331;SDS011;13284;52.748;13.452;2023-11-21T13:01:04;25.90;;;13.23;;
25331;SDS011;13284;52.748;13.452;2023-11-21T13:03:43;35.60;;;16.33;;
25331;SDS011;13284;52.748;13.452;2023-11-21T13:06:13;31.33;;;14.90;;
25331;SDS011;13284;52.748;13.452;2023-11-21T13:08:41;28.83;;;14.30;;
25331;SDS011;13284;52.748;13.452;2023-11-21T13:11:06;31.90;;;12.40;;
25331;SDS011;13284;52.748;13.452;2023-11-21T13:13:32;28.83;;;13.10;;
25331;SDS011;13284;52.748;13.452;2023-11-21T13:15:59;24.70;;;13.77;;
25331;SDS011;13284;52.748;13.452;2023-11-21T13:18:26;23.10;;;14.50;;
25331;SDS011;13284;52.748;13.452;2023-11-21T13:20:59;22.20;;;13.80;;
25331;SDS011;13284;52.748;13.452;2023-11-21T13:23:38;26.17;;;12.63;;
25331;SDS011;13284;52.748;13.452;2023-11-21T13:26:06;24.93;;;12.93;;
25331;SDS011;13284;52.748;13.452;2023-11-21T13:28:33;22.40;;;12.83;;
25331;SDS011;13284;52.748;13.452;2023-11-21T13:31:03;20.37;;;11.27;;
25331;SDS011;13284;52.748;13.452;2023-11-21T13:33:35;19.43;;;11.43;;
25331;SDS011;13284;52.748;13.452;2023-11-21T13:36:03;18.40;;;10.40;;
25331;SDS011;13284;52.748;13.452;2023-11-21T13:38:32;20.80;;;12.97;;
25331;SDS011;13284;52.748;13.452;2023-11-21T13:41:00;15.90;;;10.33;;
25331;SDS011;13284;52.748;13.452;2023-11-21T13:43:26;17.47;;;11.10;;
25331;SDS011;13284;52.748;13.452;2023-11-21T13:45:53;18.43;;;11.40;;
25331;SDS011;13284;52.748;13.452;2023-11-21T13:48:29;21.47;;;11.70;;
25331;SDS011;13284;52.748;13.452;2023-11-21T13:51:05;16.80;;;10.00;;
25331;SDS011;13284;52.748;13.452;2023-11-21T13:53:45;18.47;;;10.53;;
25331;SDS011;13284;52.748;13.452;2023-11-21T13:56:18;14.83;;;9.57;;
25331;SDS011;13284;52.748;13.452;2023-11-21T13:58:50;13.10;;;8.73;;
25331;SDS011;13284;52.748;13.452;2023-11-21T14:01:17;14.80;;;10.27;;
25331;SDS011;13284;52.748;13.452;2023-11-21T14:03:49;11.03;;;7.97;;
25331;SDS011;13284;52.748;13.452;2023-11-21T14:06:21;11.47;;;9.47;;
25331;SDS011;13284;52.748;13.452;2023-11-21T14:08:52;11.40;;;8.17;;
25331;SDS011;13284;52.748;13.452;2023-11-21T14:11:21;8.83;;;7.10;;
25331;SDS011;13284;52.748;13.452;2023-11-21T14:13:47;13.90;;;8.77;;
25331;SDS011;13284;52.748;13.452;2023-11-21T14:16:13;11.00;;;7.60;;
25331;SDS011;13284;52.748;13.452;2023-11-21T14:18:39;12.73;;;8.57;;
25331;SDS011;13284;52.748;13.452;2023-11-21T14:21:18;15.10;;;8.53;;
25331;SDS011;13284;52.748;13.452;2023-11-21T14:23:43;12.83;;;7.90;;
25331;SDS011;13284;52.748;13.452;2023-11-21T14:26:10;13.60;;;9.97;;
25331;SDS011;13284;52.748;13.452;2023-11-21T14:28:39;17.80;;;11.93;;
25331;SDS011;13284;52.748;13.452;2023-11-21T14:31:04;16.70;;;10.30;;
25331;SDS011;13284;52.748;13.452;2023-11-21T14:33:30;18.60;;;11.20;;
25331;SDS011;13284;52.748;13.452;2023-11-21T14:35:55;21.70;;;12.97;;